Terminal Aerodrome Forecast
Issued by NWS Shreveport, LA

Home | Current Version | Previous Version | Text Only | Print | Product List | Glossary On
Versions: 1 2 3 4 5 6 7 8 9 10 11 12 13 14 15 16 17 18 19
200
FTUS44 KSHV 261720
TAFGGG
TAF
KGGG 261720Z 2618/2718 10006KT P6SM SCT035
     FM270100 13003KT P6SM SCT250
     FM270600 18003KT P6SM SKC
     FM271500 19004KT P6SM BKN050 OVC250=

USA.gov is the U.S. government's official web portal to all federal, state and local government web resources and services.